Hartland, Wisconsin
Current Conditions -  °F | °C
As of 3:45 PM on Friday 28 Nov 2014 (Local Time) from KUES Reporting Station
Broken Clouds Broken Clouds  
Wind Chill: 14°   Ceiling: 10000
Heat Index: 25°   Visibility: 10mi
Dew Point: 16°   Wind: 12mph
Humidity: 69%   Direction: 150°SSE
Pressure: 29.98"   Gusts: NA
Location:  43.1°N, 88.35°W
Report Text: KUES 282145Z 15010KT 10SM SCT021 BKN100 M04/M09 A2998
Loading
Personal Weather Stations






























Interactive Weather Map New forecast layout! Learn more

10-Day Weather Forecast

Advertisements
Track Severe Weather on mobile